Angola, LA

3:26 PM CDT on September 22, 2014 (GMT -0500)
Baton Rouge Metro-Ryan | Change Station
CLOSE
Current Station
Airport
Location: Baton Rouge,
Elevation: 69 ft
Nearby Weather Stations

Elev 69 ft 30.54 °N, 91.15 °W | Updated 33 minutes ago

Clear
Clear
88 °F
Feels Like 91 °F
N
9
Wind Variable Wind from NNE

Today
High -- | Low -- °F
--% Chance of Precip.
Yesterday
High -- | Low -- °F
Precip. -- in
6:54 AM 7:02 PM
Waning Crescent, 2% visible
Pressure 30.00 in
Visibility 10.0 miles
Clouds Clear
Heat Index 91 °F
Dew Point 68 °F
Humidity 51%
Rainfall 0.00 in
Snow Depth Not available.
UV 8 out of 12
Pollen 10.30 out of 12
Air Quality Not available.
Flu Activity Not available.
METAR KBTR 221953Z 02008KT 360V060 10SM CLR 31/20 A3000 RMK AO2 SLP158 T03110200

More Conditions Fewer Conditions

Pressure 30.00 in
Visibility 10.0 miles
Clouds Clear
Heat Index 91 °F
Dew Point 68 °F
Humidity 51%
Rainfall 0.00 in
Snow Depth Not available.
UV 8 out of 12
Pollen 10.30 out of 12
Air Quality Not available.
Flu Activity Not available.
METAR KBTR 221953Z 02008KT 360V060 10SM CLR 31/20 A3000 RMK AO2 SLP158 T03110200

More Conditions Fewer Conditions

10-Day Weather Forecast

Almanac

Astronomy

Sep. 22, 2014 Rise Set
Actual Time 6:54 AM CDT 7:02 PM CDT
Civil Twilight 6:30 AM CDT 7:26 PM CDT
Nautical Twilight 6:02 AM CDT 7:54 PM CDT
Astronomical Twilight 5:33 AM CDT 8:23 PM CDT
Moon 5:27 AM CDT 6:08 PM CDT
Length of Visible Light 12h 56m
Length of Day
12h 08m
Tomorrow will be 1m 52s shorter.
Waning Crescent, 2% of the Moon is Illuminated
Today
Waning Crescent
Sep 24
New
Oct 1
First Quarter
Oct 8
Full
Oct 15
Last Quarter

Today's Extremes

State Highs State Lows

Community

WunderPhotos

Upload Photos

1,755,523 photos uploaded!

WunderBlogs® & News

Nearby

Snow Depth

Station Depth Elevation
No new snow has been reported.

Earthquake Activity

City Distance Mag. Time & Date
No recent earthquake activity has been reported nearby.
Minimum magnitude displayed is 2.5.

Coastal Water Temperatures

Place Temperature
No Stations Reporting

Nearby Weather Stations